Terminal Aerodrome Forecast
Issued by NWS

Home | Current Version | Previous Version | Graphics & Text | Print | Product List | Glossary Off
Versions: 1 2 3 4 5 6 7 8 9 10 11 12

000
FTUS43 KICT 241120
TAFCNU
TAF
KCNU 241120Z 2412/2512 18007KT P6SM SCT250
     FM241600 21016G24KT P6SM SCT250
     FM242300 23011KT P6SM SCT250
     FM250100 27006KT P6SM BKN200
     FM250400 35013KT P6SM BKN200=

USA.gov is the U.S. government's official web portal to all federal, state and local government web resources and services.